Time;durP1;ratioP1;P1;durP2;ratioP2;P2;SDS_P1;SDS_P2;PMS_P1;PMS_P2;Temp;Humidity;BMP_temperature;BMP_pressure;BME280_temperature;BME280_humidity;BME280_pressure;Samples;Min_cycle;Max_cycle;Signal;HPM_P1;HPM_P2
2022/03/18 00:00:53;;;;;;;9.93;5.33;;;2.60;99.90;;;;;;5006244;28;20184;-81
2022/03/18 00:03:19;;;;;;;9.77;5.80;;;2.60;99.90;;;;;;5005837;28;20177;-81
2022/03/18 00:05:44;;;;;;;10.33;6.00;;;2.60;99.90;;;;;;5005352;28;20181;-81
2022/03/18 00:08:10;;;;;;;19.20;5.33;;;2.50;99.90;;;;;;5022133;28;20180;-81
2022/03/18 00:10:36;;;;;;;10.63;5.47;;;2.50;99.90;;;;;;5022670;28;20238;-81
2022/03/18 00:13:02;;;;;;;7.63;5.37;;;2.50;99.90;;;;;;5021952;28;20302;-82
2022/03/18 00:15:28;;;;;;;8.57;5.20;;;2.40;99.90;;;;;;5004702;28;20208;-81
2022/03/18 00:17:55;;;;;;;13.57;5.67;;;2.30;99.90;;;;;;5004978;28;20173;-81
2022/03/18 00:20:21;;;;;;;8.03;5.73;;;2.40;99.90;;;;;;5022276;28;20212;-81
2022/03/18 00:22:48;;;;;;;10.50;6.20;;;2.30;99.90;;;;;;5022132;28;20667;-81
2022/03/18 00:25:14;;;;;;;9.23;5.83;;;2.30;99.90;;;;;;5004050;28;20573;-81
2022/03/18 00:27:45;;;;;;;11.87;5.57;;;2.30;99.90;;;;;;5021914;28;20179;-81
2022/03/18 00:30:12;;;;;;;7.90;4.90;;;2.30;99.90;;;;;;5012184;28;20177;-79
2022/03/18 00:32:42;;;;;;;10.43;5.63;;;2.30;99.90;;;;;;5021240;28;20209;-78
2022/03/18 00:35:08;;;;;;;9.67;5.80;;;2.20;99.90;;;;;;5020523;28;20201;-80
2022/03/18 00:37:35;;;;;;;12.73;5.10;;;2.20;99.90;;;;;;5003454;28;20595;-80
2022/03/18 00:40:01;;;;;;;8.50;5.07;;;2.20;99.90;;;;;;5021464;28;20231;-81
2022/03/18 00:42:27;;;;;;;8.30;5.23;;;2.20;99.90;;;;;;5020669;28;20686;-81
2022/03/18 00:44:52;;;;;;;10.00;6.00;;;2.20;99.90;;;;;;5020893;28;20188;-81
2022/03/18 00:52:46;;;;;;;9.77;5.07;;;2.00;99.90;;;;;;5020871;28;20620;-81
2022/03/18 00:55:12;;;;;;;9.17;5.67;;;2.00;99.90;;;;;;5020602;28;20196;-81
2022/03/18 00:57:37;;;;;;;10.47;6.23;;;2.00;99.90;;;;;;5020626;28;20193;-81
2022/03/18 01:00:05;;;;;;;11.13;6.20;;;2.00;99.90;;;;;;5020129;28;20169;-79
2022/03/18 01:02:30;;;;;;;9.53;5.67;;;2.00;99.90;;;;;;5002250;28;20288;-80
2022/03/18 01:04:56;;;;;;;9.83;5.83;;;2.00;99.90;;;;;;5020519;28;20651;-81
2022/03/18 01:07:21;;;;;;;10.77;6.40;;;1.90;99.90;;;;;;5002692;28;20647;-81
2022/03/18 01:09:47;;;;;;;11.07;6.50;;;1.90;99.90;;;;;;5019921;28;20176;-81
2022/03/18 01:12:12;;;;;;;9.73;5.97;;;1.90;99.90;;;;;;5020001;28;20213;-81
2022/03/18 01:14:38;;;;;;;15.73;6.13;;;1.90;99.90;;;;;;5002208;28;20675;-81
2022/03/18 01:17:04;;;;;;;9.03;5.97;;;1.90;99.90;;;;;;5019860;28;20169;-81
2022/03/18 01:19:30;;;;;;;8.73;5.87;;;1.90;99.90;;;;;;5002111;28;20177;-80
2022/03/18 01:21:55;;;;;;;11.73;6.10;;;1.90;99.90;;;;;;5019696;28;20200;-80
2022/03/18 01:24:21;;;;;;;12.90;5.77;;;1.80;99.90;;;;;;5019664;28;20229;-81
2022/03/18 01:26:46;;;;;;;10.57;5.57;;;1.80;99.90;;;;;;5019670;28;20183;-81
2022/03/18 01:29:12;;;;;;;11.30;5.83;;;1.80;99.90;;;;;;5002302;28;20181;-80
2022/03/18 01:31:37;;;;;;;9.53;5.90;;;1.80;99.90;;;;;;5019625;28;20572;-80
2022/03/18 01:34:03;;;;;;;7.17;5.47;;;1.80;99.90;;;;;;5002794;28;20208;-81
2022/03/18 01:36:29;;;;;;;9.87;6.27;;;1.80;99.90;;;;;;5022130;28;20176;-81
2022/03/18 01:38:54;;;;;;;11.40;6.17;;;1.80;99.90;;;;;;5004818;28;20245;-80
2022/03/18 01:41:21;;;;;;;11.03;5.60;;;1.70;99.90;;;;;;5019674;28;20248;-81
2022/03/18 01:43:47;;;;;;;7.90;5.93;;;1.70;99.90;;;;;;5003022;28;20230;-80
2022/03/18 01:46:15;;;;;;;12.77;6.23;;;1.70;99.90;;;;;;5019056;28;20659;-80
2022/03/18 01:48:41;;;;;;;7.27;5.63;;;1.70;99.90;;;;;;5018520;28;20233;-80
2022/03/18 01:51:08;;;;;;;10.43;6.33;;;1.70;99.90;;;;;;5019350;28;20196;-80
2022/03/18 01:53:38;;;;;;;13.57;6.27;;;1.60;99.90;;;;;;5019424;28;20569;-79
2022/03/18 01:56:05;;;;;;;8.90;5.80;;;1.60;99.90;;;;;;5019589;28;20235;-80
2022/03/18 01:58:31;;;;;;;6.53;5.47;;;1.60;99.90;;;;;;5018645;28;20234;-80
2022/03/18 02:00:57;;;;;;;11.00;5.67;;;1.60;99.90;;;;;;5001223;28;20267;-80
2022/03/18 02:03:22;;;;;;;11.73;6.13;;;1.60;99.90;;;;;;5019117;28;20165;-80
2022/03/18 02:05:48;;;;;;;8.67;5.13;;;1.50;99.90;;;;;;5019141;28;20177;-80
2022/03/18 02:08:17;;;;;;;6.90;5.13;;;1.50;99.90;;;;;;5001849;28;20552;-80
2022/03/18 02:10:43;;;;;;;11.27;5.80;;;1.50;99.90;;;;;;5018440;28;20180;-79
2022/03/18 02:13:08;;;;;;;12.03;6.07;;;1.40;99.90;;;;;;5019544;28;20181;-80
2022/03/18 02:15:34;;;;;;;11.53;5.97;;;1.40;99.90;;;;;;5001273;28;20307;-79
2022/03/18 02:17:59;;;;;;;10.83;5.00;;;1.40;99.90;;;;;;5019529;28;20169;-79
2022/03/18 02:20:25;;;;;;;8.17;5.63;;;1.40;99.90;;;;;;5019317;28;20219;-80
2022/03/18 02:22:51;;;;;;;9.53;6.10;;;1.40;99.90;;;;;;5027666;28;20200;-79
2022/03/18 02:25:16;;;;;;;8.63;5.73;;;1.40;99.90;;;;;;5024686;28;20628;-79
2022/03/18 02:27:55;;;;;;;7.23;5.57;;;1.30;99.90;;;;;;5017760;28;20192;-80
2022/03/18 02:30:20;;;;;;;6.97;5.70;;;1.30;99.90;;;;;;5017936;28;20172;-80
2022/03/18 02:32:46;;;;;;;13.17;6.07;;;1.30;99.90;;;;;;5017821;28;20254;-79
2022/03/18 02:35:12;;;;;;;9.23;5.40;;;1.20;99.90;;;;;;5020233;28;20277;-79
2022/03/18 02:37:38;;;;;;;11.17;5.93;;;1.20;99.90;;;;;;5000540;28;20283;-79
2022/03/18 02:40:04;;;;;;;10.63;5.87;;;1.20;99.90;;;;;;5001208;28;20173;-79
2022/03/18 02:42:29;;;;;;;8.40;5.37;;;1.20;99.90;;;;;;5000673;28;20199;-79
2022/03/18 02:44:55;;;;;;;7.97;6.03;;;1.20;99.90;;;;;;5018881;28;20177;-79
2022/03/18 02:47:21;;;;;;;10.87;6.50;;;1.10;99.90;;;;;;5020761;28;20187;-79
2022/03/18 02:49:47;;;;;;;11.40;6.47;;;1.10;99.90;;;;;;5016315;28;20183;-79
2022/03/18 02:52:14;;;;;;;10.23;6.33;;;1.10;99.90;;;;;;5028325;28;20545;-80
2022/03/18 02:54:39;;;;;;;11.33;6.47;;;1.10;99.90;;;;;;5017981;28;20251;-80
2022/03/18 02:57:05;;;;;;;11.27;6.33;;;1.10;99.90;;;;;;5000044;28;20651;-80
2022/03/18 02:59:32;;;;;;;13.93;6.80;;;1.10;99.90;;;;;;5000265;28;20230;-79
2022/03/18 03:01:57;;;;;;;11.57;7.17;;;1.00;99.90;;;;;;5000209;28;20192;-80
2022/03/18 03:04:23;;;;;;;9.77;6.80;;;1.00;99.90;;;;;;4999902;28;20190;-79
2022/03/18 03:09:33;;;;;;;9.00;6.63;;;1.00;99.90;;;;;;5017875;28;20188;-78
2022/03/18 03:11:58;;;;;;;12.77;6.67;;;0.90;99.90;;;;;;5018477;28;20212;-79
2022/03/18 03:14:24;;;;;;;14.27;7.07;;;0.90;99.90;;;;;;5018017;28;20203;-80
2022/03/18 03:16:49;;;;;;;10.67;7.00;;;0.90;99.90;;;;;;5018141;28;20180;-80
2022/03/18 03:19:15;;;;;;;18.93;6.63;;;0.80;99.90;;;;;;5000659;28;20661;-79
2022/03/18 03:21:41;;;;;;;11.03;6.40;;;0.80;99.90;;;;;;5000310;28;20647;-80
2022/03/18 03:24:06;;;;;;;10.17;6.33;;;0.80;99.90;;;;;;5001182;28;20275;-80
2022/03/18 03:26:32;;;;;;;8.27;6.33;;;1.00;99.90;;;;;;5025137;28;20192;-79
2022/03/18 03:28:58;;;;;;;12.43;7.37;;;0.80;99.90;;;;;;5018583;28;20188;-79
2022/03/18 03:31:23;;;;;;;11.27;7.03;;;0.80;99.90;;;;;;5017782;28;20302;-80
2022/03/18 03:33:49;;;;;;;10.07;6.77;;;0.80;99.90;;;;;;5018054;28;20180;-80
2022/03/18 03:36:15;;;;;;;11.00;6.53;;;0.70;99.90;;;;;;5018290;28;20652;-80
2022/03/18 03:38:41;;;;;;;10.37;6.77;;;0.70;99.90;;;;;;5000644;28;20184;-80
2022/03/18 03:41:06;;;;;;;12.10;7.43;;;0.70;99.90;;;;;;5018078;28;20196;-80
2022/03/18 03:43:32;;;;;;;13.37;7.50;;;0.70;99.90;;;;;;5000305;28;20264;-80
2022/03/18 03:45:57;;;;;;;11.47;6.63;;;0.70;99.90;;;;;;5018518;28;20177;-80
2022/03/18 03:48:23;;;;;;;12.20;7.10;;;0.60;99.90;;;;;;5000845;28;20270;-79
2022/03/18 03:50:48;;;;;;;13.00;7.47;;;0.60;99.90;;;;;;5017646;28;20542;-79
2022/03/18 03:53:14;;;;;;;14.97;7.23;;;0.60;99.90;;;;;;4999744;28;20258;-80
2022/03/18 03:55:40;;;;;;;11.23;6.87;;;0.60;99.90;;;;;;5000536;28;20592;-79
2022/03/18 03:58:07;;;;;;;11.73;7.30;;;0.60;99.90;;;;;;5000388;28;20621;-80
2022/03/18 04:00:33;;;;;;;9.10;6.37;;;0.60;99.90;;;;;;5000525;28;20214;-79
2022/03/18 04:02:59;;;;;;;10.73;6.67;;;0.60;99.90;;;;;;5018144;28;20192;-80
2022/03/18 04:05:24;;;;;;;15.13;7.80;;;0.60;99.90;;;;;;5000716;28;20191;-80
2022/03/18 04:07:50;;;;;;;9.63;7.10;;;0.50;99.90;;;;;;5025723;28;20176;-79
2022/03/18 04:10:16;;;;;;;11.13;6.80;;;0.50;99.90;;;;;;5030661;28;20247;-79
2022/03/18 04:12:43;;;;;;;11.33;6.67;;;0.50;99.90;;;;;;5013487;28;20215;-79
2022/03/18 04:15:09;;;;;;;14.40;7.40;;;0.40;99.90;;;;;;5020840;28;20191;-80
2022/03/18 04:17:46;;;;;;;12.30;7.20;;;0.40;99.90;;;;;;5003481;28;20198;-79
2022/03/18 04:20:17;;;;;;;17.03;7.10;;;0.40;99.90;;;;;;5021511;28;20157;-80
2022/03/18 04:22:43;;;;;;;11.67;7.03;;;0.40;99.90;;;;;;5003330;28;20262;-80
2022/03/18 04:25:09;;;;;;;10.57;7.07;;;0.40;99.90;;;;;;5020313;28;20657;-80
2022/03/18 04:27:36;;;;;;;16.97;7.60;;;0.40;99.90;;;;;;5019790;28;20680;-80
2022/03/18 04:30:04;;;;;;;12.37;7.37;;;0.40;99.90;;;;;;5001368;28;20585;-80
2022/03/18 04:32:29;;;;;;;9.33;6.30;;;0.40;99.90;;;;;;5019950;28;20200;-81
2022/03/18 04:34:55;;;;;;;12.33;6.87;;;0.40;99.90;;;;;;5019841;28;20250;-81
2022/03/18 04:37:21;;;;;;;12.30;7.47;;;0.30;99.90;;;;;;5019441;28;20198;-80
2022/03/18 04:39:46;;;;;;;14.13;6.83;;;0.30;99.90;;;;;;5020482;28;20168;-80
2022/03/18 04:42:12;;;;;;;14.50;7.30;;;0.30;99.90;;;;;;5020121;28;20187;-81
2022/03/18 04:44:38;;;;;;;11.10;7.07;;;0.30;99.90;;;;;;5002354;28;20180;-81
2022/03/18 04:47:04;;;;;;;11.70;7.43;;;0.30;99.90;;;;;;5003378;28;20237;-80
2022/03/18 04:49:30;;;;;;;11.77;7.23;;;0.30;99.90;;;;;;5020166;28;20204;-81
2022/03/18 04:51:55;;;;;;;15.10;7.23;;;0.30;99.90;;;;;;5002039;28;20207;-80
2022/03/18 04:54:21;;;;;;;7.97;6.37;;;0.30;99.90;;;;;;5002524;28;20207;-81
2022/03/18 04:59:30;;;;;;;10.33;7.00;;;0.30;99.90;;;;;;5019678;28;20377;-81
2022/03/18 05:01:56;;;;;;;9.37;6.00;;;0.30;99.90;;;;;;5001813;28;20282;-80
2022/03/18 05:04:21;;;;;;;13.33;6.70;;;0.20;99.90;;;;;;5020561;28;20192;-80
2022/03/18 05:06:47;;;;;;;11.83;7.33;;;0.20;99.90;;;;;;5019356;28;20178;-80
2022/03/18 05:09:13;;;;;;;10.47;6.13;;;0.20;99.90;;;;;;5002580;28;20190;-80
2022/03/18 05:11:38;;;;;;;12.07;6.80;;;0.20;99.90;;;;;;5002402;28;20255;-80
2022/03/18 05:14:04;;;;;;;10.07;6.30;;;0.30;99.90;;;;;;5020181;28;20575;-79
2022/03/18 05:16:29;;;;;;;15.73;7.20;;;0.40;99.90;;;;;;5027493;28;20180;-79
2022/03/18 05:18:55;;;;;;;9.47;7.00;;;0.30;99.90;;;;;;5018256;28;20522;-79
2022/03/18 05:21:21;;;;;;;11.23;6.70;;;0.30;99.90;;;;;;5019054;28;20694;-80
2022/03/18 05:23:47;;;;;;;12.17;6.87;;;0.30;99.90;;;;;;5017399;28;20165;-77
2022/03/18 05:26:13;;;;;;;11.50;7.37;;;0.30;99.90;;;;;;4997675;28;20179;-77
2022/03/18 05:28:39;;;;;;;14.13;7.50;;;0.30;99.90;;;;;;4997374;28;20178;-76
2022/03/18 05:31:04;;;;;;;11.23;7.00;;;0.30;99.90;;;;;;5015599;28;20570;-78
2022/03/18 05:33:30;;;;;;;10.40;7.40;;;0.30;99.90;;;;;;5018601;28;20598;-79
2022/03/18 05:35:56;;;;;;;14.80;7.73;;;0.30;99.90;;;;;;5018421;28;20204;-78
2022/03/18 05:38:21;;;;;;;10.60;7.00;;;0.30;99.90;;;;;;5018516;28;20589;-79
2022/03/18 05:40:47;;;;;;;11.77;7.03;;;0.30;99.90;;;;;;5018001;28;20180;-79
2022/03/18 05:43:13;;;;;;;13.13;6.73;;;0.30;99.90;;;;;;4999957;28;20631;-78
2022/03/18 05:45:39;;;;;;;11.80;7.07;;;0.20;99.90;;;;;;5016788;28;20175;-78
2022/03/18 05:48:06;;;;;;;12.00;6.93;;;0.20;99.90;;;;;;5017241;28;20226;-80
2022/03/18 05:50:33;;;;;;;10.67;7.10;;;0.20;99.90;;;;;;5016642;28;20191;-80
2022/03/18 05:52:59;;;;;;;13.07;6.90;;;0.20;99.90;;;;;;4998269;28;20349;-81
2022/03/18 05:55:25;;;;;;;15.07;6.80;;;0.20;99.90;;;;;;4999702;28;20227;-80
2022/03/18 05:57:55;;;;;;;13.70;6.63;;;0.20;99.90;;;;;;5016913;28;20186;-80
2022/03/18 06:00:21;;;;;;;11.30;6.30;;;0.20;99.90;;;;;;5018883;28;20178;-80
2022/03/18 06:02:46;;;;;;;11.70;7.07;;;0.20;99.90;;;;;;5000999;28;20192;-80
2022/03/18 06:05:12;;;;;;;11.13;6.50;;;0.20;99.90;;;;;;5016209;28;20195;-78
2022/03/18 06:07:38;;;;;;;10.10;6.63;;;0.20;99.90;;;;;;5014938;28;20187;-79
2022/03/18 06:12:48;;;;;;;10.40;6.17;;;0.20;99.90;;;;;;5015441;28;20285;-78
2022/03/18 06:15:14;;;;;;;12.83;6.27;;;0.20;99.90;;;;;;4997736;28;20251;-78
2022/03/18 06:17:40;;;;;;;10.27;6.03;;;0.20;99.90;;;;;;4997528;28;20184;-77
2022/03/18 06:20:06;;;;;;;9.60;6.03;;;0.20;99.90;;;;;;5015350;28;20214;-77
2022/03/18 06:22:31;;;;;;;11.93;6.47;;;0.20;99.90;;;;;;5016699;28;20673;-79
2022/03/18 06:24:57;;;;;;;9.43;7.13;;;0.20;99.90;;;;;;4998998;28;20241;-79
2022/03/18 06:27:22;;;;;;;10.83;6.37;;;0.30;99.90;;;;;;4997413;28;20241;-78
2022/03/18 06:29:48;;;;;;;8.80;5.93;;;0.30;99.90;;;;;;5014535;28;20195;-77
2022/03/18 06:32:13;;;;;;;11.43;6.90;;;0.30;99.90;;;;;;5014460;28;20203;-78
2022/03/18 06:34:39;;;;;;;10.13;6.27;;;0.30;99.90;;;;;;5014643;28;20219;-78
2022/03/18 06:37:05;;;;;;;10.67;6.87;;;0.30;99.90;;;;;;5014396;28;20208;-78
2022/03/18 06:39:31;;;;;;;8.67;6.47;;;0.30;99.90;;;;;;4996893;28;20242;-78
2022/03/18 06:41:57;;;;;;;13.27;6.47;;;0.30;99.90;;;;;;4998378;28;20223;-79
2022/03/18 06:44:23;;;;;;;9.03;6.47;;;0.30;99.90;;;;;;5017815;28;20184;-80
2022/03/18 06:46:48;;;;;;;12.93;6.73;;;0.40;99.90;;;;;;4999787;28;20189;-79
2022/03/18 06:49:14;;;;;;;9.27;6.97;;;0.40;99.90;;;;;;5017762;28;20184;-79
2022/03/18 06:51:40;;;;;;;10.63;6.43;;;0.50;99.90;;;;;;5000256;28;20200;-80
2022/03/18 06:54:06;;;;;;;10.77;6.30;;;0.50;99.90;;;;;;5017624;28;20180;-80
2022/03/18 06:56:33;;;;;;;12.00;6.80;;;0.50;99.90;;;;;;5018242;28;20293;-79
2022/03/18 06:58:59;;;;;;;15.10;7.20;;;0.50;99.90;;;;;;5018125;28;20183;-80
2022/03/18 07:01:25;;;;;;;11.20;6.93;;;0.60;99.90;;;;;;5001139;28;20253;-79
2022/03/18 07:03:51;;;;;;;11.77;7.27;;;0.60;99.90;;;;;;5020287;28;20181;-79
2022/03/18 07:06:17;;;;;;;12.67;6.77;;;0.60;99.90;;;;;;5018746;28;20206;-79
2022/03/18 07:08:43;;;;;;;14.67;7.47;;;0.70;99.90;;;;;;5000204;28;20219;-79
2022/03/18 07:11:10;;;;;;;12.53;6.60;;;0.80;99.90;;;;;;5017717;28;20227;-80
2022/03/18 07:13:36;;;;;;;15.23;6.97;;;0.80;99.90;;;;;;5000248;28;20186;-79
2022/03/18 07:18:45;;;;;;;11.83;7.20;;;0.90;99.90;;;;;;5016606;28;20175;-79
2022/03/18 07:21:11;;;;;;;16.57;7.33;;;1.00;99.90;;;;;;5017524;28;20670;-80
2022/03/18 07:23:37;;;;;;;15.73;7.10;;;1.00;99.90;;;;;;4999453;28;20182;-79
2022/03/18 07:26:02;;;;;;;13.07;7.57;;;1.10;99.90;;;;;;5017468;28;20545;-79
2022/03/18 07:28:28;;;;;;;9.87;6.93;;;1.20;99.90;;;;;;5018086;28;20168;-79
2022/03/18 07:30:53;;;;;;;10.67;7.23;;;1.30;99.90;;;;;;5017414;28;20234;-80
2022/03/18 07:33:19;;;;;;;11.80;7.17;;;1.40;99.90;;;;;;5018407;28;20176;-79
2022/03/18 07:35:44;;;;;;;15.33;7.77;;;1.40;99.90;;;;;;5017369;28;20223;-79
2022/03/18 07:38:10;;;;;;;19.70;8.47;;;1.60;99.90;;;;;;5024503;28;20195;-79
2022/03/18 07:40:40;;;;;;;14.97;7.47;;;1.70;99.90;;;;;;5030530;28;20150;-77
2022/03/18 07:43:07;;;;;;;15.20;8.10;;;1.80;99.90;;;;;;5025423;28;20217;-78
2022/03/18 07:45:34;;;;;;;12.30;8.50;;;1.90;99.90;;;;;;5019641;28;20192;-77
2022/03/18 07:48:05;;;;;;;15.87;8.13;;;2.00;99.90;;;;;;5000310;28;20177;-79
2022/03/18 07:50:32;;;;;;;14.27;8.07;;;2.20;99.90;;;;;;5001899;28;20227;-78
2022/03/18 07:53:03;;;;;;;20.80;9.87;;;2.20;99.90;;;;;;5019186;28;20248;-78
2022/03/18 07:55:30;;;;;;;23.20;9.10;;;2.30;99.90;;;;;;5018484;28;20211;-78
2022/03/18 07:57:57;;;;;;;20.67;11.27;;;2.50;99.90;;;;;;5018463;28;20183;-78
2022/03/18 08:00:23;;;;;;;17.03;10.37;;;2.60;99.90;;;;;;5018840;28;20176;-78
2022/03/18 08:02:51;;;;;;;17.83;10.43;;;2.80;99.90;;;;;;5000669;28;20204;-78
2022/03/18 08:05:17;;;;;;;18.70;10.90;;;2.90;99.90;;;;;;5018808;28;20268;-78
2022/03/18 08:07:44;;;;;;;26.33;12.97;;;3.10;99.90;;;;;;5018271;28;20195;-78
2022/03/18 08:10:10;;;;;;;25.37;12.07;;;3.30;99.90;;;;;;5018202;28;20181;-79
2022/03/18 08:12:38;;;;;;;22.13;12.07;;;3.40;99.90;;;;;;5019409;28;20216;-80
2022/03/18 08:15:06;;;;;;;23.07;12.50;;;3.70;99.90;;;;;;5019776;28;20204;-80
2022/03/18 08:17:32;;;;;;;27.23;13.13;;;3.80;99.90;;;;;;5019255;28;20616;-80
2022/03/18 08:19:59;;;;;;;26.03;13.27;;;4.00;99.90;;;;;;5020802;28;20264;-79
2022/03/18 08:22:26;;;;;;;24.93;12.30;;;4.20;99.90;;;;;;5019980;28;20204;-79
2022/03/18 08:24:52;;;;;;;21.07;12.10;;;4.40;99.90;;;;;;5020744;28;20220;-80
2022/03/18 08:27:19;;;;;;;26.73;12.53;;;4.50;99.90;;;;;;5019935;28;20173;-80
2022/03/18 08:29:45;;;;;;;16.80;9.93;;;4.60;99.90;;;;;;5020477;28;20288;-80
2022/03/18 08:32:15;;;;;;;28.27;11.23;;;4.70;99.90;;;;;;5019067;28;20212;-80
2022/03/18 08:34:41;;;;;;;28.63;10.90;;;4.90;99.90;;;;;;5002671;28;20223;-80
2022/03/18 08:37:08;;;;;;;19.90;8.10;;;5.10;99.90;;;;;;5056634;22;20276;-77
2022/03/18 08:39:34;;;;;;;18.27;8.07;;;5.20;99.90;;;;;;5075833;28;20159;-77
2022/03/18 08:42:00;;;;;;;19.20;7.17;;;5.30;99.90;;;;;;5075716;28;20171;-77
2022/03/18 08:44:26;;;;;;;16.63;6.27;;;5.40;99.90;;;;;;5075392;28;20175;-77
2022/03/18 08:46:52;;;;;;;11.13;5.67;;;5.60;99.90;;;;;;5075191;28;20196;-78
2022/03/18 08:49:18;;;;;;;9.07;4.50;;;5.70;99.90;;;;;;5057326;28;20175;-77
2022/03/18 08:51:43;;;;;;;13.27;4.30;;;6.00;99.90;;;;;;5057065;28;20170;-76
2022/03/18 08:54:09;;;;;;;11.63;4.40;;;6.20;99.90;;;;;;5075959;28;20648;-78
2022/03/18 08:56:35;;;;;;;8.37;2.87;;;6.40;99.90;;;;;;5074638;28;20175;-79
2022/03/18 08:59:06;;;;;;;9.57;2.80;;;6.50;99.90;;;;;;5074375;28;20198;-77
2022/03/18 09:01:33;;;;;;;7.63;2.83;;;6.70;99.90;;;;;;5074974;28;20144;-77
2022/03/18 09:03:58;;;;;;;10.83;3.50;;;6.80;99.90;;;;;;5056712;28;20177;-77
2022/03/18 09:06:24;;;;;;;12.00;3.47;;;6.90;99.90;;;;;;5074888;28;20170;-78
2022/03/18 09:08:50;;;;;;;10.67;2.73;;;7.00;99.90;;;;;;5074532;28;20269;-77
2022/03/18 09:11:15;;;;;;;6.13;2.63;;;7.10;99.90;;;;;;5074828;28;20254;-78
2022/03/18 09:13:41;;;;;;;9.17;2.67;;;7.20;99.90;;;;;;5074312;28;20169;-77
2022/03/18 09:16:06;;;;;;;7.90;2.93;;;7.40;99.90;;;;;;5074623;28;20676;-77
2022/03/18 09:18:32;;;;;;;8.37;2.70;;;7.60;99.90;;;;;;5074267;28;20194;-78
2022/03/18 09:20:58;;;;;;;6.27;3.17;;;7.70;99.90;;;;;;5074156;28;20670;-80
2022/03/18 09:23:23;;;;;;;9.40;2.77;;;7.80;99.90;;;;;;5077587;28;20650;-78
2022/03/18 09:25:49;;;;;;;7.27;2.97;;;7.80;99.90;;;;;;5058473;28;20262;-78
2022/03/18 09:28:15;;;;;;;8.93;2.67;;;8.00;99.90;;;;;;5058800;28;20285;-78
2022/03/18 09:30:41;;;;;;;8.97;3.03;;;8.20;99.90;;;;;;5074595;28;20257;-77
2022/03/18 09:33:07;;;;;;;10.10;3.13;;;8.30;99.90;;;;;;5074683;28;20629;-77
2022/03/18 09:35:33;;;;;;;9.10;3.40;;;8.30;99.90;;;;;;5073930;28;20195;-78
2022/03/18 09:37:59;;;;;;;9.47;2.60;;;8.40;99.90;;;;;;5073831;28;20209;-77
2022/03/18 09:40:24;;;;;;;8.20;3.30;;;8.40;99.90;;;;;;5056051;28;20620;-78
2022/03/18 09:43:02;;;;;;;7.03;3.07;;;8.60;99.90;;;;;;5055927;28;20186;-79
2022/03/18 09:45:31;;;;;;;5.57;2.80;;;8.70;99.90;;;;;;5073992;28;20228;-77
2022/03/18 09:48:02;;;;;;;8.23;2.33;;;8.80;99.90;;;;;;5073951;28;20195;-77
2022/03/18 09:50:29;;;;;;;6.17;2.83;;;8.80;99.90;;;;;;5074635;28;20154;-78
2022/03/18 09:52:55;;;;;;;5.60;2.47;;;9.00;99.90;;;;;;5055951;28;20186;-78
2022/03/18 09:55:21;;;;;;;8.53;3.33;;;9.10;99.90;;;;;;5055494;28;20194;-78
2022/03/18 09:57:46;;;;;;;7.93;3.13;;;9.20;99.90;;;;;;5055361;28;20186;-77
2022/03/18 10:00:13;;;;;;;9.33;3.37;;;9.30;99.90;;;;;;5073575;28;20174;-78
2022/03/18 10:02:38;;;;;;;7.60;3.00;;;9.40;99.90;;;;;;5073632;28;20246;-77
2022/03/18 10:05:13;;;;;;;7.63;2.60;;;9.50;99.90;;;;;;5073774;28;20199;-78
2022/03/18 10:07:39;;;;;;;5.83;2.73;;;9.50;99.90;;;;;;5073417;28;20185;-77
2022/03/18 10:10:05;;;;;;;10.77;4.03;;;9.70;99.90;;;;;;5054940;28;20175;-78
2022/03/18 10:12:35;;;;;;;7.87;2.80;;;9.70;99.90;;;;;;5055637;28;20545;-77
2022/03/18 10:15:14;;;;;;;6.63;3.57;;;9.80;99.90;;;;;;5073299;28;20179;-76
2022/03/18 10:17:46;;;;;;;6.87;3.23;;;9.90;99.90;;;;;;5055277;28;20568;-77
2022/03/18 10:20:29;;;;;;;11.43;3.70;;;10.00;99.90;;;;;;5074060;28;20163;-76
2022/03/18 10:23:05;;;;;;;6.33;3.50;;;10.00;99.90;;;;;;5073876;28;20189;-78
2022/03/18 10:25:41;;;;;;;7.87;3.50;;;10.10;99.90;;;;;;5074936;28;20161;-78
2022/03/18 10:28:09;;;;;;;6.70;3.13;;;10.20;99.90;;;;;;5056577;28;20206;-78
2022/03/18 10:30:36;;;;;;;6.97;3.53;;;10.30;99.90;;;;;;5055450;28;20182;-78
2022/03/18 10:33:03;;;;;;;9.13;4.07;;;10.30;99.90;;;;;;5055888;28;20179;-78
2022/03/18 10:38:33;;;;;;;7.27;3.57;;;10.40;99.90;;;;;;5074123;28;20649;-79
2022/03/18 10:40:59;;;;;;;7.47;3.17;;;10.60;99.90;;;;;;5073964;28;20254;-78
2022/03/18 10:43:26;;;;;;;8.70;3.00;;;10.70;99.90;;;;;;5073474;28;20166;-78
2022/03/18 10:46:03;;;;;;;7.63;3.80;;;10.80;99.90;;;;;;5055344;28;20179;-78
2022/03/18 10:48:28;;;;;;;11.53;4.30;;;10.80;99.90;;;;;;5055346;28;20562;-78
2022/03/18 10:51:04;;;;;;;8.30;3.60;;;10.80;99.90;;;;;;5055368;28;20228;-78
2022/03/18 10:53:31;;;;;;;6.80;3.10;;;10.90;99.90;;;;;;5073228;28;20173;-78
2022/03/18 10:56:00;;;;;;;6.67;3.10;;;11.00;99.90;;;;;;5073094;28;20718;-78
2022/03/18 10:58:29;;;;;;;5.73;2.73;;;10.90;99.90;;;;;;5055220;28;20195;-77
2022/03/18 11:00:58;;;;;;;5.63;2.97;;;11.00;99.90;;;;;;5054910;28;20178;-78
2022/03/18 11:03:28;;;;;;;8.30;3.50;;;11.10;99.90;;;;;;5055526;28;20543;-78
2022/03/18 11:05:54;;;;;;;4.30;3.23;;;11.10;99.90;;;;;;5073195;28;20167;-78
2022/03/18 11:08:26;;;;;;;10.07;3.20;;;11.20;99.90;;;;;;5072847;28;20270;-78
2022/03/18 11:11:15;;;;;;;7.47;3.00;;;11.20;99.90;;;;;;5055088;28;20613;-78
2022/03/18 11:14:01;;;;;;;6.87;3.00;;;11.30;99.90;;;;;;5073379;28;20250;-77
2022/03/18 11:16:29;;;;;;;8.53;3.00;;;11.40;99.90;;;;;;5073252;28;20178;-78
2022/03/18 11:18:57;;;;;;;7.57;3.30;;;11.40;99.90;;;;;;5072975;28;20195;-78
2022/03/18 11:21:35;;;;;;;6.80;2.57;;;11.50;99.90;;;;;;5054825;28;20201;-77
2022/03/18 11:24:03;;;;;;;4.50;2.47;;;11.50;99.90;;;;;;5076569;28;20187;-78
2022/03/18 11:26:29;;;;;;;7.10;2.73;;;11.40;99.90;;;;;;5077280;28;20163;-78
2022/03/18 11:29:13;;;;;;;7.83;3.20;;;11.60;99.90;;;;;;5076721;28;20764;-78
2022/03/18 11:31:40;;;;;;;6.17;2.80;;;11.50;99.90;;;;;;5077489;28;20581;-78
2022/03/18 11:34:15;;;;;;;5.37;2.97;;;11.50;99.90;;;;;;5077513;28;20163;-78
2022/03/18 11:36:46;;;;;;;4.63;2.43;;;11.60;99.90;;;;;;5077252;28;20174;-78
2022/03/18 11:39:19;;;;;;;8.07;2.60;;;11.70;99.90;;;;;;5077359;28;20640;-77
2022/03/18 11:41:48;;;;;;;4.60;2.47;;;11.80;99.90;;;;;;5077295;28;20273;-77
2022/03/18 11:44:43;;;;;;;5.17;2.70;;;11.80;99.90;;;;;;5077108;28;20174;-78
2022/03/18 11:47:20;;;;;;;7.50;2.47;;;11.80;99.90;;;;;;5077116;28;20179;-79
2022/03/18 11:49:46;;;;;;;5.93;2.80;;;11.80;99.90;;;;;;5058590;28;20167;-78
2022/03/18 11:52:12;;;;;;;6.07;3.07;;;11.90;99.90;;;;;;5076413;28;20198;-78
2022/03/18 11:55:00;;;;;;;7.30;2.97;;;11.90;99.90;;;;;;5076591;28;20668;-79
2022/03/18 11:57:33;;;;;;;4.63;2.80;;;12.00;99.90;;;;;;5058469;28;20201;-79
2022/03/18 12:00:07;;;;;;;5.67;2.37;;;12.00;99.90;;;;;;5076483;28;20167;-78
2022/03/18 12:02:36;;;;;;;7.20;2.77;;;12.00;99.90;;;;;;5058261;28;20194;-78
2022/03/18 12:05:06;;;;;;;8.20;2.87;;;12.10;99.90;;;;;;5076197;28;20642;-79
2022/03/18 12:07:48;;;;;;;6.57;3.00;;;12.10;99.90;;;;;;5076043;28;20616;-79
2022/03/18 12:10:31;;;;;;;6.33;3.30;;;12.20;99.90;;;;;;5059067;28;20731;-79
2022/03/18 12:12:57;;;;;;;5.13;2.30;;;12.20;99.90;;;;;;5077652;28;20167;-79
2022/03/18 12:15:23;;;;;;;6.27;3.00;;;12.30;99.90;;;;;;5058393;28;20226;-77
2022/03/18 12:17:54;;;;;;;8.40;3.30;;;12.40;99.90;;;;;;5077009;28;20222;-79
2022/03/18 12:20:24;;;;;;;7.47;2.93;;;12.40;99.90;;;;;;5076839;28;20163;-78
2022/03/18 12:22:51;;;;;;;8.47;2.87;;;12.40;99.90;;;;;;5077115;28;20633;-78
2022/03/18 12:25:17;;;;;;;6.90;2.70;;;12.40;99.90;;;;;;5077029;28;20167;-78
2022/03/18 12:27:44;;;;;;;5.67;2.87;;;12.50;99.90;;;;;;5079488;28;20274;-79
2022/03/18 12:30:10;;;;;;;8.60;3.63;;;12.60;99.90;;;;;;5078599;28;20167;-81
2022/03/18 12:32:55;;;;;;;5.50;2.70;;;12.70;99.90;;;;;;5075435;28;20175;-78
2022/03/18 12:35:33;;;;;;;8.53;2.53;;;12.70;99.90;;;;;;5058532;28;20198;-80
2022/03/18 12:38:11;;;;;;;5.93;2.73;;;12.70;99.90;;;;;;5077187;28;20202;-78
2022/03/18 12:40:40;;;;;;;6.43;2.70;;;12.60;99.90;;;;;;5060155;28;20186;-79
2022/03/18 12:43:07;;;;;;;4.67;2.50;;;12.60;99.90;;;;;;5076841;28;20656;-78
2022/03/18 12:45:42;;;;;;;5.57;2.43;;;12.70;99.90;;;;;;5076591;28;20649;-77
2022/03/18 12:48:16;;;;;;;6.07;2.70;;;12.70;99.90;;;;;;5061772;28;20558;-78
2022/03/18 12:50:50;;;;;;;9.07;3.57;;;12.60;99.90;;;;;;5088913;28;20159;-79
2022/03/18 12:53:22;;;;;;;7.17;3.17;;;12.60;99.90;;;;;;5080607;28;20174;-78
2022/03/18 12:55:50;;;;;;;6.57;3.20;;;12.70;99.90;;;;;;5062956;28;20194;-78
2022/03/18 12:58:17;;;;;;;7.00;3.07;;;12.70;99.90;;;;;;5080986;28;20305;-78
2022/03/18 13:00:54;;;;;;;6.57;2.50;;;12.80;99.90;;;;;;5059424;28;20262;-77
2022/03/18 13:03:25;;;;;;;6.33;2.63;;;12.80;99.90;;;;;;5076767;28;20151;-78
2022/03/18 13:05:52;;;;;;;5.17;2.27;;;12.70;99.90;;;;;;5076507;28;20155;-78
2022/03/18 13:08:19;;;;;;;6.27;2.87;;;12.80;99.90;;;;;;5075520;28;20688;-79